Terminal Aerodrome Forecast
Issued by NWS Nashville, TN

Home | Current Version | Previous Version | Text Only | Print | Product List | Glossary On
Versions: 1 2 3 4 5 6 7 8 9 10 11 12 13 14 15
046
FTUS44 KOHX 250530
TAFCSV
TAF
KCSV 250530Z 2506/2606 20004KT P6SM SCT250
     FM251400 24007KT P6SM BKN120 OVC250
     FM251700 29007KT P6SM BKN060
     FM252300 33007G15KT P6SM FEW040=

USA.gov is the U.S. government's official web portal to all federal, state and local government web resources and services.